Time;durP1;ratioP1;P1;durP2;ratioP2;P2;SDS_P1;SDS_P2;PMS_P1;PMS_P2;Temp;Humidity;BMP_temperature;BMP_pressure;BME280_temperature;BME280_humidity;BME280_pressure;Samples;Min_cycle;Max_cycle;Signal;HPM_P1;HPM_P2
2023/11/16 00:00:05;;;;;;;7.57;1.70;;;;;;;8.36;90.09;95817.19;6137110;23;20190;-80
2023/11/16 00:02:31;;;;;;;2.73;1.30;;;;;;;8.40;89.74;95815.19;6187860;23;20251;-80
2023/11/16 00:04:57;;;;;;;5.80;1.47;;;;;;;8.31;90.72;95819.34;6161486;23;20202;-80
2023/11/16 00:07:23;;;;;;;5.70;1.50;;;;;;;8.43;90.33;95815.75;6136185;23;20195;-80
2023/11/16 00:09:49;;;;;;;5.00;1.60;;;;;;;8.35;90.29;95809.56;6136487;23;20158;-80
2023/11/16 00:12:14;;;;;;;3.67;1.60;;;;;;;8.26;90.72;95812.88;6161087;23;20205;-80
2023/11/16 00:14:40;;;;;;;5.60;1.90;;;;;;;8.32;90.46;95815.78;6187950;23;20662;-79
2023/11/16 00:17:07;;;;;;;8.73;1.80;;;;;;;8.34;90.49;95815.66;6160738;23;20167;-79
2023/11/16 00:19:35;;;;;;;9.30;1.70;;;;;;;8.36;90.37;95819.78;6162113;23;20619;-79
2023/11/16 00:22:01;;;;;;;4.43;1.50;;;;;;;8.22;91.12;95820.09;6161212;23;20185;-80
2023/11/16 00:24:26;;;;;;;5.63;1.40;;;;;;;8.19;91.24;95822.91;6161211;23;20625;-80
2023/11/16 00:26:52;;;;;;;2.73;1.30;;;;;;;8.30;90.50;95820.25;6160590;23;20159;-79
2023/11/16 00:29:18;;;;;;;5.77;1.30;;;;;;;8.23;90.79;95824.31;6161978;23;20154;-80
2023/11/16 00:31:43;;;;;;;7.40;1.43;;;;;;;8.28;90.40;95823.91;6137225;23;20190;-80
2023/11/16 00:34:09;;;;;;;4.77;1.40;;;;;;;8.27;89.89;95820.50;6136936;23;20534;-80
2023/11/16 00:36:38;;;;;;;3.90;1.50;;;;;;;8.33;89.78;95822.59;6161980;23;20177;-79
2023/11/16 00:39:03;;;;;;;2.07;1.00;;;;;;;8.28;90.11;95822.16;6162337;23;20158;-79
2023/11/16 00:41:29;;;;;;;4.10;1.33;;;;;;;8.24;90.33;95816.41;6189277;23;20250;-80
2023/11/16 00:43:54;;;;;;;2.77;1.23;;;;;;;8.23;90.02;95822.53;6139331;23;20162;-79
2023/11/16 00:46:21;;;;;;;2.33;1.10;;;;;;;8.21;90.07;95814.06;6163303;23;20178;-79
2023/11/16 00:48:47;;;;;;;4.30;1.13;;;;;;;8.14;90.93;95812.13;6163762;23;20220;-79
2023/11/16 00:51:12;;;;;;;3.37;1.37;;;;;;;8.22;90.56;95807.97;6163042;23;20682;-79
2023/11/16 00:53:44;;;;;;;5.53;1.73;;;;;;;8.20;90.38;95803.84;6137327;23;20155;-80
2023/11/16 00:56:10;;;;;;;7.33;1.80;;;;;;;8.23;90.60;95808.78;6138623;23;20490;-80
2023/11/16 00:58:37;;;;;;;7.93;1.60;;;;;;;8.32;90.20;95804.63;6162039;23;20169;-79
2023/11/16 01:01:05;;;;;;;3.77;1.27;;;;;;;8.32;90.23;95796.88;6162697;23;20668;-80
2023/11/16 01:03:30;;;;;;;5.87;1.63;;;;;;;8.32;90.28;95791.69;6162814;23;20154;-80
2023/11/16 01:05:56;;;;;;;8.17;1.30;;;;;;;8.21;90.84;95789.97;6136591;23;20189;-79
2023/11/16 01:08:21;;;;;;;5.23;1.40;;;;;;;8.30;90.54;95794.38;6137535;23;20249;-79
2023/11/16 01:10:50;;;;;;;6.37;1.57;;;;;;;8.26;91.01;95789.59;6161661;23;20261;-79
2023/11/16 01:13:24;;;;;;;4.77;1.50;;;;;;;8.18;91.44;95791.03;6161987;23;20162;-79
2023/11/16 01:15:50;;;;;;;2.93;1.40;;;;;;;8.23;91.20;95788.91;6138552;23;20135;-79
2023/11/16 01:18:16;;;;;;;4.13;1.53;;;;;;;8.19;91.26;95792.69;6162416;23;20174;-79
2023/11/16 01:20:42;;;;;;;5.33;1.77;;;;;;;8.26;91.28;95792.19;6162975;23;20171;-79
2023/11/16 01:23:12;;;;;;;3.53;1.50;;;;;;;8.26;91.07;95789.59;6162207;23;20155;-80
2023/11/16 01:25:44;;;;;;;5.40;1.80;;;;;;;8.19;91.53;95792.69;6164495;23;20178;-80
2023/11/16 01:28:10;;;;;;;5.13;1.60;;;;;;;8.19;91.54;95792.69;6139859;23;20218;-78
2023/11/16 01:30:36;;;;;;;5.37;1.60;;;;;;;8.22;91.49;95795.03;6138226;23;20175;-79
2023/11/16 01:33:04;;;;;;;2.07;1.27;;;;;;;7.98;92.77;95789.28;6161120;23;20162;-79
2023/11/16 01:35:29;;;;;;;6.87;1.60;;;;;;;7.99;91.68;95784.94;6137625;23;20182;-79
2023/11/16 01:37:56;;;;;;;7.63;1.40;;;;;;;8.11;91.44;95799.44;6136864;23;20166;-80
2023/11/16 01:40:24;;;;;;;4.90;1.60;;;;;;;8.12;91.01;95783.78;6162086;23;20174;-79
2023/11/16 01:42:49;;;;;;;5.13;1.60;;;;;;;8.24;90.41;95793.13;6137753;23;20250;-80
2023/11/16 01:45:27;;;;;;;3.27;1.37;;;;;;;8.32;90.77;95794.28;6136214;23;20182;-80
2023/11/16 01:47:53;;;;;;;7.00;2.30;;;;;;;8.31;90.40;95793.47;6162246;23;20150;-79
2023/11/16 01:50:18;;;;;;;13.77;1.97;;;;;;;8.24;90.99;95795.72;6135850;23;20175;-80
2023/11/16 01:52:44;;;;;;;5.27;1.70;;;;;;;8.21;91.21;95795.97;6160420;23;20230;-80
2023/11/16 01:55:09;;;;;;;5.70;2.40;;;;;;;8.03;91.27;95797.47;6134738;23;20154;-78
2023/11/16 01:57:35;;;;;;;5.53;1.70;;;;;;;8.09;91.60;95802.16;6186603;23;20602;-80
2023/11/16 02:00:00;;;;;;;5.93;1.30;;;;;;;7.97;91.46;95798.00;6135065;23;20236;-79
2023/11/16 02:02:28;;;;;;;4.73;1.40;;;;;;;7.79;91.99;95805.47;6135227;23;20154;-79
2023/11/16 02:04:54;;;;;;;4.53;1.40;;;;;;;7.93;91.21;95812.09;6136057;23;20182;-79
2023/11/16 02:07:19;;;;;;;6.20;1.80;;;;;;;7.92;90.90;95800.13;6135305;23;20561;-79
2023/11/16 02:09:47;;;;;;;3.37;1.60;;;;;;;7.93;90.42;95801.75;6161265;23;20154;-80
2023/11/16 02:12:12;;;;;;;4.13;1.73;;;;;;;7.83;91.61;95800.88;6187258;23;20181;-78
2023/11/16 02:14:37;;;;;;;4.60;1.60;;;;;;;7.86;91.39;95790.28;6186982;23;20502;-80
2023/11/16 02:17:03;;;;;;;6.20;1.60;;;;;;;7.66;91.57;95794.47;6137496;23;20217;-78
2023/11/16 02:19:32;;;;;;;6.97;1.60;;;;;;;7.74;91.64;95789.50;6138345;23;20170;-79
2023/11/16 02:21:58;;;;;;;4.57;1.40;;;;;;;7.77;91.19;95788.44;6162146;23;20178;-80
2023/11/16 02:24:23;;;;;;;5.13;1.70;;;;;;;7.79;91.14;95784.81;6162489;23;20598;-80
2023/11/16 02:26:51;;;;;;;4.57;1.63;;;;;;;7.73;91.38;95792.22;6162495;23;20183;-79
2023/11/16 02:29:16;;;;;;;4.77;1.60;;;;;;;7.66;91.48;95797.06;6163613;23;20157;-79
2023/11/16 02:31:42;;;;;;;4.63;1.30;;;;;;;7.70;91.11;95795.06;6137689;23;20202;-80
2023/11/16 02:34:08;;;;;;;3.87;1.60;;;;;;;7.64;91.07;95786.03;6188536;23;20274;-80
2023/11/16 02:36:33;;;;;;;2.87;1.43;;;;;;;7.65;90.60;95775.56;6161753;23;20157;-79
2023/11/16 02:38:59;;;;;;;3.83;1.50;;;;;;;7.58;89.79;95777.00;6137736;23;20158;-80
2023/11/16 02:41:25;;;;;;;3.73;1.43;;;;;;;7.55;89.28;95764.34;6137328;23;20261;-80
2023/11/16 02:43:50;;;;;;;4.20;1.40;;;;;;;7.63;88.90;95768.88;6162400;23;20155;-79
2023/11/16 02:46:17;;;;;;;4.30;1.53;;;;;;;7.78;88.37;95756.50;6136642;23;20228;-79
2023/11/16 02:48:43;;;;;;;2.83;1.60;;;;;;;7.70;88.46;95759.69;6136780;23;20165;-80
2023/11/16 02:51:08;;;;;;;3.80;1.40;;;;;;;7.71;89.36;95755.34;6188366;23;20573;-80
2023/11/16 02:53:34;;;;;;;6.10;1.60;;;;;;;7.57;89.62;95762.44;6160950;23;20150;-80
2023/11/16 02:56:03;;;;;;;7.50;1.87;;;;;;;7.43;90.22;95765.34;6135732;23;20161;-78
2023/11/16 02:58:28;;;;;;;5.67;2.00;;;;;;;7.49;90.11;95758.84;6161618;23;20150;-79
2023/11/16 03:00:54;;;;;;;4.90;1.30;;;;;;;7.48;90.14;95752.03;6136400;23;20260;-79
2023/11/16 03:03:19;;;;;;;5.37;1.67;;;;;;;7.48;90.44;95747.69;6187113;23;20151;-80
2023/11/16 03:05:45;;;;;;;7.43;1.60;;;;;;;7.61;90.00;95745.75;6135548;23;20233;-79
2023/11/16 03:08:11;;;;;;;4.03;1.60;;;;;;;7.46;90.79;95747.00;6136401;23;20185;-79
2023/11/16 03:10:37;;;;;;;5.37;1.50;;;;;;;7.37;90.50;95743.38;6136337;23;20175;-80
2023/11/16 03:13:03;;;;;;;5.60;1.57;;;;;;;7.62;89.15;95736.25;6161025;23;20204;-79
2023/11/16 03:15:28;;;;;;;2.50;1.20;;;;;;;7.44;89.51;95729.97;6160505;23;20167;-79
2023/11/16 03:17:56;;;;;;;3.43;1.23;;;;;;;7.41;89.24;95718.09;6160240;23;20161;-80
2023/11/16 03:20:21;;;;;;;4.63;1.60;;;;;;;7.46;88.90;95715.97;6160173;23;20182;-79
2023/11/16 03:22:46;;;;;;;2.37;1.27;;;;;;;7.44;89.67;95701.56;6135815;23;20190;-79
2023/11/16 03:25:12;;;;;;;3.83;1.50;;;;;;;7.49;89.24;95691.66;6159952;23;20179;-79
2023/11/16 03:27:37;;;;;;;3.50;1.47;;;;;;;7.42;89.58;95691.34;6160159;23;20154;-79
2023/11/16 03:30:04;;;;;;;6.20;1.47;;;;;;;7.41;89.68;95687.09;6160703;23;20177;-80
2023/11/16 03:32:29;;;;;;;5.73;1.70;;;;;;;7.46;89.65;95684.97;6160953;23;20346;-79
2023/11/16 03:34:54;;;;;;;5.60;1.67;;;;;;;7.45;89.77;95690.28;6160249;23;20147;-78
2023/11/16 03:37:20;;;;;;;2.90;1.50;;;;;;;7.48;90.24;95688.25;6135613;23;20154;-80
2023/11/16 03:39:46;;;;;;;2.83;1.80;;;;;;;7.54;90.12;95705.84;6187799;23;20157;-80
2023/11/16 03:42:11;;;;;;;6.80;1.50;;;;;;;7.65;89.61;95702.38;6160515;23;20209;-78
2023/11/16 03:44:37;;;;;;;6.57;1.60;;;;;;;7.62;89.78;95690.53;6160132;23;20507;-78
2023/11/16 03:47:02;;;;;;;7.43;1.63;;;;;;;7.54;90.58;95695.50;6134847;23;20221;-80
2023/11/16 03:49:28;;;;;;;4.57;1.80;;;;;;;7.67;90.07;95697.91;6135342;23;20218;-79
2023/11/16 03:51:53;;;;;;;6.70;1.90;;;;;;;7.63;90.01;95702.50;6186109;23;20171;-79
2023/11/16 03:54:19;;;;;;;3.97;1.70;;;;;;;7.59;90.24;95714.03;6160241;23;20157;-80
2023/11/16 03:56:45;;;;;;;3.97;1.70;;;;;;;7.71;89.86;95714.81;6134832;23;20158;-80
2023/11/16 03:59:12;;;;;;;3.23;1.60;;;;;;;7.64;90.72;95705.91;6160244;23;20163;-79
2023/11/16 04:01:38;;;;;;;4.43;1.47;;;;;;;7.60;91.17;95713.09;6160679;23;20245;-79
2023/11/16 04:04:07;;;;;;;5.20;1.50;;;;;;;7.75;90.62;95705.03;6160605;23;20249;-79
2023/11/16 04:06:33;;;;;;;3.93;1.63;;;;;;;7.84;90.19;95701.69;6160900;23;20182;-78
2023/11/16 04:08:58;;;;;;;5.90;1.50;;;;;;;7.84;89.74;95699.09;6136022;23;20189;-79
2023/11/16 04:11:23;;;;;;;8.53;1.80;;;;;;;7.78;90.07;95694.44;6136078;23;20193;-80
2023/11/16 04:13:49;;;;;;;4.50;1.40;;;;;;;7.80;90.11;95689.97;6160127;23;20154;-79
2023/11/16 04:16:23;;;;;;;3.10;1.13;;;;;;;7.88;90.11;95692.75;6160031;23;20206;-79
2023/11/16 04:18:49;;;;;;;5.43;1.50;;;;;;;7.78;90.47;95691.88;6149593;23;20162;-80
2023/11/16 04:21:18;;;;;;;2.13;1.37;;;;;;;7.79;90.58;95690.91;6157385;23;20182;-78
2023/11/16 04:23:56;;;;;;;3.90;1.30;;;;;;;7.76;91.07;95694.56;6131217;23;20623;-79
2023/11/16 04:26:29;;;;;;;3.70;1.40;;;;;;;7.78;91.24;95684.94;6132651;23;20631;-79
2023/11/16 04:28:57;;;;;;;3.90;1.40;;;;;;;7.80;90.60;95687.38;6106926;23;20158;-78
2023/11/16 04:31:24;;;;;;;2.97;1.40;;;;;;;7.70;91.63;95683.91;6131531;23;20900;-79
2023/11/16 04:33:51;;;;;;;2.13;1.50;;;;;;;7.74;91.38;95682.72;6131676;23;20159;-79
2023/11/16 04:36:18;;;;;;;3.13;1.50;;;;;;;7.74;91.62;95682.72;6130680;23;20447;-79
2023/11/16 04:38:44;;;;;;;4.50;1.33;;;;;;;7.69;91.26;95684.88;6106319;23;20159;-78
2023/11/16 04:41:09;;;;;;;4.10;1.47;;;;;;;7.69;90.66;95679.69;6131154;23;20187;-79
2023/11/16 04:43:35;;;;;;;3.37;1.40;;;;;;;7.55;90.67;95673.88;6106091;23;20554;-78
2023/11/16 04:46:01;;;;;;;6.43;1.70;;;;;;;7.39;91.75;95679.47;6130048;23;20194;-79
2023/11/16 04:48:27;;;;;;;3.60;1.67;;;;;;;7.46;91.24;95679.81;6157991;23;20155;-80
2023/11/16 04:50:53;;;;;;;3.20;1.37;;;;;;;7.37;91.93;95672.81;6106853;23;20187;-78
2023/11/16 04:53:19;;;;;;;5.40;2.13;;;;;;;7.38;91.96;95677.03;6106267;23;20169;-79
2023/11/16 04:55:44;;;;;;;3.63;1.60;;;;;;;7.43;91.81;95663.75;6106477;23;20162;-79
2023/11/16 04:58:09;;;;;;;2.83;1.47;;;;;;;7.48;91.40;95667.56;6131532;23;20166;-80
2023/11/16 05:00:34;;;;;;;3.70;1.33;;;;;;;7.49;91.53;95658.06;6106189;23;20233;-78
2023/11/16 05:03:00;;;;;;;3.33;1.63;;;;;;;7.49;91.12;95665.81;6106560;23;20156;-79
2023/11/16 05:05:25;;;;;;;3.30;1.67;;;;;;;7.38;91.21;95664.94;6129682;23;20230;-79
2023/11/16 05:07:50;;;;;;;3.77;1.73;;;;;;;7.45;91.55;95670.41;6130845;23;20159;-80
2023/11/16 05:10:16;;;;;;;6.37;1.50;;;;;;;7.48;91.78;95669.34;6106524;23;20183;-80
2023/11/16 05:12:42;;;;;;;2.57;1.57;;;;;;;7.43;91.85;95664.56;6106592;23;20170;-79
2023/11/16 05:15:09;;;;;;;4.43;1.43;;;;;;;7.45;91.76;95667.84;6106189;23;20159;-79
2023/11/16 05:17:35;;;;;;;2.90;1.77;;;;;;;7.47;91.65;95676.28;6106269;23;20163;-78
2023/11/16 05:20:01;;;;;;;2.60;1.70;;;;;;;7.45;91.32;95667.03;6156564;23;20166;-79
2023/11/16 05:22:26;;;;;;;6.10;1.93;;;;;;;7.42;92.51;95664.66;6135346;23;20174;-79
2023/11/16 05:24:51;;;;;;;5.13;2.17;;;;;;;7.35;93.66;95664.38;6159996;23;20158;-79
2023/11/16 05:27:18;;;;;;;3.63;2.37;;;;;;;7.44;92.90;95655.06;6135259;23;20178;-78
2023/11/16 05:29:44;;;;;;;3.47;1.90;;;;;;;7.54;92.44;95649.00;6111618;23;20173;-78
2023/11/16 05:32:09;;;;;;;4.80;1.87;;;;;;;7.51;92.34;95644.09;6160238;23;20186;-76
2023/11/16 05:34:34;;;;;;;3.70;1.77;;;;;;;7.49;92.12;95642.56;6134864;23;20169;-78
2023/11/16 05:37:00;;;;;;;4.37;2.07;;;;;;;7.46;92.31;95642.81;6134599;23;20610;-77
2023/11/16 05:39:25;;;;;;;4.27;1.57;;;;;;;7.47;92.32;95644.44;6134724;23;20298;-77
2023/11/16 05:41:50;;;;;;;5.93;2.03;;;;;;;7.49;92.11;95645.97;6135012;23;20189;-80
2023/11/16 05:44:19;;;;;;;4.53;1.57;;;;;;;7.46;92.40;95641.06;6159718;23;20158;-81
2023/11/16 05:46:45;;;;;;;2.67;1.77;;;;;;;7.39;92.89;95643.31;6159056;23;20533;-78
2023/11/16 05:49:10;;;;;;;2.87;1.80;;;;;;;7.47;92.68;95629.75;6135134;23;20202;-80
2023/11/16 05:51:36;;;;;;;4.67;1.77;;;;;;;7.47;92.84;95618.63;6158678;23;20179;-79
2023/11/16 05:54:05;;;;;;;5.17;2.00;;;;;;;7.39;92.50;95616.66;6159708;23;20158;-80
2023/11/16 05:56:31;;;;;;;7.07;1.90;;;;;;;7.40;92.90;95623.47;6184227;23;20154;-80
2023/11/16 05:58:56;;;;;;;10.17;3.20;;;;;;;7.36;92.96;95617.75;6159577;23;20159;-79
2023/11/16 06:01:22;;;;;;;10.63;7.30;;;;;;;7.33;92.89;95607.66;6134403;23;20273;-79
2023/11/16 06:03:47;;;;;;;13.57;7.83;;;;;;;7.32;92.42;95608.59;6134851;23;20190;-79
2023/11/16 06:06:12;;;;;;;14.37;7.50;;;;;;;7.22;92.85;95597.38;6184721;23;20191;-79
2023/11/16 06:08:39;;;;;;;8.17;5.27;;;;;;;7.27;92.48;95597.00;6135207;23;20189;-79
2023/11/16 06:11:07;;;;;;;4.90;3.63;;;;;;;7.20;92.97;95601.84;6159769;23;20182;-80
2023/11/16 06:13:34;;;;;;;6.67;3.00;;;;;;;7.13;93.13;95599.91;6160225;23;20484;-80
2023/11/16 06:16:00;;;;;;;4.37;2.50;;;;;;;7.05;93.84;95592.75;6134274;23;20159;-80
2023/11/16 06:18:26;;;;;;;4.20;2.20;;;;;;;7.13;93.63;95594.72;6134749;23;20174;-79
2023/11/16 06:20:51;;;;;;;5.63;1.80;;;;;;;6.89;94.56;95602.69;6136830;23;20186;-80
2023/11/16 06:23:17;;;;;;;2.63;1.90;;;;;;;7.00;94.34;95600.91;6162424;23;20201;-80
2023/11/16 06:25:42;;;;;;;4.07;2.13;;;;;;;6.96;93.96;95596.91;6162187;23;20714;-80
2023/11/16 06:28:07;;;;;;;4.53;1.87;;;;;;;6.95;93.98;95592.69;6161932;23;20781;-79
2023/11/16 06:30:34;;;;;;;4.73;2.10;;;;;;;6.96;94.07;95594.34;6158948;23;20533;-78
2023/11/16 06:32:59;;;;;;;5.80;2.07;;;;;;;6.82;95.05;95598.03;6135231;23;20240;-79
2023/11/16 06:35:25;;;;;;;4.73;2.20;;;;;;;6.76;95.31;95597.72;6159150;23;20162;-79
2023/11/16 06:37:50;;;;;;;4.00;2.30;;;;;;;6.81;95.30;95595.59;6136021;23;20189;-80
2023/11/16 06:40:15;;;;;;;4.93;2.60;;;;;;;6.70;95.50;95587.88;6135544;23;20183;-80
2023/11/16 06:42:41;;;;;;;3.07;2.07;;;;;;;6.72;95.47;95584.25;6160353;23;20155;-78
2023/11/16 06:45:07;;;;;;;3.33;2.50;;;;;;;6.82;94.88;95586.91;6134600;23;20178;-78
2023/11/16 06:47:33;;;;;;;4.10;2.53;;;;;;;6.73;95.45;95585.06;6159640;23;20154;-79
2023/11/16 06:50:00;;;;;;;3.87;2.97;;;;;;;6.68;96.16;95584.59;6159683;23;20608;-80
2023/11/16 06:52:26;;;;;;;4.73;2.10;;;;;;;6.72;95.32;95580.84;6186259;23;20162;-79
2023/11/16 06:54:55;;;;;;;6.03;2.30;;;;;;;6.87;94.78;95569.25;6159762;23;20166;-80
2023/11/16 06:57:26;;;;;;;6.27;2.40;;;;;;;6.92;94.59;95568.91;6159345;23;20629;-80
2023/11/16 06:59:54;;;;;;;4.90;2.30;;;;;;;6.84;95.12;95566.94;6160819;23;20159;-80
2023/11/16 07:02:21;;;;;;;3.77;2.23;;;;;;;6.87;95.65;95564.09;6159878;23;20323;-79
2023/11/16 07:04:47;;;;;;;4.63;2.97;;;;;;;6.97;94.81;95554.66;6161417;23;20170;-80
2023/11/16 07:07:13;;;;;;;5.23;2.30;;;;;;;6.95;95.22;95561.72;6161227;23;20163;-79
2023/11/16 07:09:39;;;;;;;7.10;2.37;;;;;;;6.99;95.24;95557.13;6161972;23;20221;-79
2023/11/16 07:12:04;;;;;;;3.43;2.20;;;;;;;7.05;94.69;95546.28;6161968;23;20245;-80
2023/11/16 07:14:30;;;;;;;2.77;2.13;;;;;;;7.15;93.53;95549.75;6136653;23;20155;-79
2023/11/16 07:16:56;;;;;;;5.23;1.90;;;;;;;7.03;94.52;95551.59;6161185;23;20181;-79
2023/11/16 07:19:22;;;;;;;2.80;1.80;;;;;;;7.04;94.72;95555.81;6161669;23;20167;-79
2023/11/16 07:21:48;;;;;;;5.20;2.40;;;;;;;7.11;94.35;95553.53;6137407;23;20232;-78
2023/11/16 07:24:14;;;;;;;3.80;2.03;;;;;;;7.04;94.41;95563.53;6161544;23;20245;-80
2023/11/16 07:26:40;;;;;;;10.87;3.43;;;;;;;7.02;94.74;95562.84;6160899;23;20697;-78
2023/11/16 07:29:05;;;;;;;8.73;3.77;;;;;;;7.20;94.13;95555.38;6162612;23;20150;-78
2023/11/16 07:31:31;;;;;;;7.97;3.40;;;;;;;7.30;93.68;95545.09;6161439;23;20236;-79
2023/11/16 07:33:57;;;;;;;9.10;3.00;;;;;;;7.31;93.02;95541.56;6136916;23;20159;-80
2023/11/16 07:36:28;;;;;;;5.10;2.33;;;;;;;7.45;93.07;95533.47;6160621;23;20201;-79
2023/11/16 07:38:55;;;;;;;6.43;2.90;;;;;;;7.34;93.38;95541.31;6161867;23;20583;-78
2023/11/16 07:41:21;;;;;;;4.87;2.30;;;;;;;7.39;93.03;95528.81;6160903;23;20174;-79
2023/11/16 07:43:46;;;;;;;5.40;2.57;;;;;;;7.54;92.77;95527.53;6160872;23;20150;-79
2023/11/16 07:46:12;;;;;;;5.43;2.77;;;;;;;7.58;92.11;95528.91;6135975;23;20263;-79
2023/11/16 07:48:39;;;;;;;3.53;2.07;;;;;;;7.59;92.70;95522.78;6136508;23;20190;-79
2023/11/16 07:51:07;;;;;;;3.20;2.30;;;;;;;7.55;92.27;95518.84;6137243;23;20178;-79
2023/11/16 07:53:32;;;;;;;6.07;2.40;;;;;;;7.64;92.30;95512.06;6161914;23;20158;-79
2023/11/16 07:56:05;;;;;;;4.30;2.40;;;;;;;7.61;91.62;95522.69;6135401;23;20634;-79
2023/11/16 07:58:31;;;;;;;3.50;2.17;;;;;;;7.67;91.86;95522.13;6161378;23;20151;-79
2023/11/16 08:01:04;;;;;;;8.10;2.50;;;;;;;7.49;91.87;95514.19;6160381;23;20206;-80
2023/11/16 08:03:42;;;;;;;4.07;2.27;;;;;;;7.66;91.39;95505.00;6138299;23;20155;-79
2023/11/16 08:06:12;;;;;;;6.20;2.33;;;;;;;7.79;91.00;95500.44;6164781;23;20174;-80
2023/11/16 08:08:45;;;;;;;4.37;2.20;;;;;;;7.80;90.84;95486.56;6166423;23;20146;-80
2023/11/16 08:11:11;;;;;;;5.87;2.13;;;;;;;7.84;90.90;95474.97;6165053;23;20237;-79
2023/11/16 08:13:41;;;;;;;5.33;1.80;;;;;;;7.93;90.53;95466.44;6162520;23;20155;-79
2023/11/16 08:16:09;;;;;;;4.47;2.10;;;;;;;7.95;90.13;95459.38;6162958;23;20506;-78
2023/11/16 08:18:38;;;;;;;6.80;2.30;;;;;;;8.03;90.25;95456.09;6138537;23;20177;-80
2023/11/16 08:21:09;;;;;;;4.50;2.40;;;;;;;8.06;89.97;95455.84;6137376;23;20233;-80
2023/11/16 08:23:38;;;;;;;7.67;2.90;;;;;;;7.92;90.35;95454.44;6162319;23;20229;-79
2023/11/16 08:26:05;;;;;;;4.90;2.60;;;;;;;8.04;90.12;95446.56;6161492;23;20174;-80
2023/11/16 08:28:31;;;;;;;3.33;2.60;;;;;;;8.14;89.72;95447.41;6136519;23;20154;-80
2023/11/16 08:30:58;;;;;;;8.10;3.20;;;;;;;8.14;89.88;95443.06;6161037;23;20284;-79
2023/11/16 08:33:25;;;;;;;8.47;2.83;;;;;;;8.20;89.34;95447.66;6161550;23;20154;-79
2023/11/16 08:35:51;;;;;;;7.80;2.60;;;;;;;8.07;90.23;95447.13;6160291;23;20151;-78
2023/11/16 08:38:16;;;;;;;5.67;2.63;;;;;;;7.95;90.28;95455.94;6136462;23;20241;-79
2023/11/16 08:40:43;;;;;;;6.33;2.50;;;;;;;7.94;91.03;95456.91;6159812;23;20170;-79
2023/11/16 08:43:11;;;;;;;4.47;2.67;;;;;;;7.84;91.82;95449.13;6159921;23;20205;-79
2023/11/16 08:45:37;;;;;;;4.90;2.47;;;;;;;8.00;91.14;95447.81;6186007;23;20208;-79
2023/11/16 08:48:03;;;;;;;7.13;2.47;;;;;;;7.87;90.46;95450.66;6135689;23;20154;-79
2023/11/16 08:50:29;;;;;;;5.30;2.53;;;;;;;7.98;90.98;95449.72;6161300;23;20764;-79
2023/11/16 08:52:57;;;;;;;6.00;2.20;;;;;;;8.12;89.95;95438.97;6164478;23;20159;-78
2023/11/16 08:55:22;;;;;;;5.70;2.33;;;;;;;8.36;89.43;95442.00;6162754;23;20147;-78
2023/11/16 08:57:51;;;;;;;4.30;2.63;;;;;;;8.38;89.23;95426.31;6163947;23;20170;-79
2023/11/16 09:00:37;;;;;;;7.27;1.97;;;;;;;8.61;88.02;95429.47;6159915;23;20159;-79
2023/11/16 09:03:05;;;;;;;4.87;2.00;;;;;;;8.47;88.00;95425.50;6161919;23;20648;-79
2023/11/16 09:05:35;;;;;;;4.03;1.80;;;;;;;8.66;88.19;95415.16;6160291;23;20516;-80
2023/11/16 09:08:01;;;;;;;5.30;2.40;;;;;;;8.72;86.96;95414.56;6136492;23;20622;-80
2023/11/16 09:10:27;;;;;;;5.07;2.70;;;;;;;8.78;87.28;95405.44;6160107;23;20174;-79
2023/11/16 09:12:53;;;;;;;4.33;2.73;;;;;;;8.62;87.39;95405.19;6159943;23;20229;-79
2023/11/16 09:15:20;;;;;;;4.60;2.37;;;;;;;8.65;86.94;95410.09;6161427;23;20633;-80
2023/11/16 09:17:45;;;;;;;6.70;2.50;;;;;;;8.84;86.93;95393.72;6160743;23;20233;-78
2023/11/16 09:20:12;;;;;;;5.57;1.90;;;;;;;8.70;86.71;95393.19;6162209;23;20166;-80
2023/11/16 09:22:38;;;;;;;4.00;1.93;;;;;;;8.76;86.62;95387.47;6135687;23;20163;-79
2023/11/16 09:25:06;;;;;;;7.13;3.17;;;;;;;8.82;85.76;95388.66;6159765;23;20261;-79
2023/11/16 09:27:38;;;;;;;5.17;2.53;;;;;;;8.98;85.49;95378.53;6159411;23;20189;-80
2023/11/16 09:30:06;;;;;;;4.50;2.50;;;;;;;8.84;86.35;95367.81;6161618;23;20142;-79
2023/11/16 09:32:32;;;;;;;4.43;2.20;;;;;;;8.89;86.66;95360.44;6137041;23;20270;-79
2023/11/16 09:34:59;;;;;;;4.57;1.90;;;;;;;9.10;85.69;95355.88;6160812;23;20154;-79
2023/11/16 09:37:27;;;;;;;6.80;2.57;;;;;;;9.10;85.59;95353.28;6160930;23;20154;-79
2023/11/16 09:39:54;;;;;;;3.23;2.13;;;;;;;9.09;85.46;95346.44;6161318;23;20158;-79
2023/11/16 09:42:24;;;;;;;6.83;2.67;;;;;;;8.84;85.60;95334.97;6160258;23;20205;-80
2023/11/16 09:44:53;;;;;;;4.13;2.40;;;;;;;8.93;85.83;95336.72;6186636;23;20143;-79
2023/11/16 09:47:25;;;;;;;5.50;2.50;;;;;;;9.01;85.98;95333.38;6159213;23;20162;-79
2023/11/16 09:49:57;;;;;;;6.20;2.20;;;;;;;8.93;86.45;95328.13;6160954;23;20139;-79
2023/11/16 09:52:31;;;;;;;8.80;2.50;;;;;;;8.89;86.53;95319.00;6163474;23;20228;-80
2023/11/16 09:54:59;;;;;;;6.03;2.80;;;;;;;8.86;85.62;95316.72;6135758;23;20162;-79
2023/11/16 09:57:27;;;;;;;5.90;3.60;;;;;;;8.89;85.80;95314.63;6128791;23;20182;-80
2023/11/16 09:59:52;;;;;;;4.10;2.30;;;;;;;8.82;86.06;95305.00;6144626;23;20162;-79
2023/11/16 10:02:23;;;;;;;5.10;2.13;;;;;;;8.85;85.96;95296.97;6153789;23;20173;-79
2023/11/16 10:04:53;;;;;;;6.50;2.13;;;;;;;8.76;86.26;95289.09;6155874;23;20185;-78
2023/11/16 10:07:25;;;;;;;2.77;1.80;;;;;;;8.89;85.54;95287.94;6204694;23;20166;-78
2023/11/16 10:09:53;;;;;;;6.27;2.03;;;;;;;8.68;85.95;95283.81;6170821;23;20158;-78
2023/11/16 10:12:18;;;;;;;5.47;1.90;;;;;;;8.68;86.19;95272.63;6163552;23;20175;-79
2023/11/16 10:14:52;;;;;;;3.07;2.03;;;;;;;8.75;85.80;95265.94;6176790;23;20206;-79
2023/11/16 10:17:24;;;;;;;6.50;2.23;;;;;;;8.73;86.28;95260.88;6154161;23;20173;-79
2023/11/16 10:19:50;;;;;;;6.43;2.03;;;;;;;8.85;85.81;95252.94;6156899;23;20230;-79
2023/11/16 10:22:16;;;;;;;5.37;2.47;;;;;;;8.73;85.69;95242.75;6175976;23;20182;-80
2023/11/16 10:24:42;;;;;;;4.30;1.93;;;;;;;8.69;86.36;95235.44;6166339;23;20158;-80
2023/11/16 10:27:09;;;;;;;5.57;1.90;;;;;;;8.37;87.62;95226.28;6162337;23;20273;-80
2023/11/16 10:29:35;;;;;;;6.17;2.30;;;;;;;8.49;86.81;95214.00;6162853;23;20173;-78
2023/11/16 10:32:02;;;;;;;5.77;1.83;;;;;;;8.61;86.83;95199.91;6137830;23;20733;-80
2023/11/16 10:34:28;;;;;;;8.70;1.87;;;;;;;8.69;86.15;95200.00;6162622;23;20166;-80
2023/11/16 10:36:55;;;;;;;8.10;2.30;;;;;;;8.76;86.28;95185.53;6161706;23;20157;-80
2023/11/16 10:39:29;;;;;;;6.17;2.30;;;;;;;8.76;85.89;95185.53;6140071;23;20247;-80
2023/11/16 10:41:56;;;;;;;7.47;2.67;;;;;;;8.84;86.09;95184.81;6138942;23;20201;-80
2023/11/16 10:44:24;;;;;;;4.57;2.03;;;;;;;8.86;85.71;95174.28;6163480;23;20590;-81
2023/11/16 10:46:50;;;;;;;5.87;2.00;;;;;;;8.86;85.60;95164.75;6162755;23;20532;-80
2023/11/16 10:49:16;;;;;;;7.77;1.93;;;;;;;8.79;85.51;95143.81;6164074;23;20154;-81
2023/11/16 10:51:46;;;;;;;7.30;2.10;;;;;;;8.88;85.43;95142.09;6140311;23;20178;-80
2023/11/16 10:54:12;;;;;;;6.90;1.93;;;;;;;8.98;85.27;95127.31;6139694;23;20578;-81
2023/11/16 10:56:41;;;;;;;7.60;2.00;;;;;;;9.05;85.58;95117.19;6139252;23;20186;-82
2023/11/16 10:59:11;;;;;;;6.07;2.30;;;;;;;8.94;85.88;95110.44;6138402;23;20158;-80
2023/11/16 11:01:36;;;;;;;7.83;2.30;;;;;;;9.06;85.15;95098.09;6167225;23;20170;-81
2023/11/16 11:04:02;;;;;;;3.87;1.93;;;;;;;8.98;85.39;95105.78;6167487;23;20166;-80
2023/11/16 11:06:28;;;;;;;5.63;2.43;;;;;;;9.02;85.63;95099.34;6166721;23;20509;-79
2023/11/16 11:08:57;;;;;;;5.27;1.93;;;;;;;9.09;85.13;95092.59;6142747;23;20194;-81
2023/11/16 11:11:27;;;;;;;6.50;1.70;;;;;;;9.12;84.92;95071.59;6167551;23;20201;-81
2023/11/16 11:13:57;;;;;;;7.27;2.27;;;;;;;9.35;83.55;95053.75;6193494;23;20514;-81
2023/11/16 11:16:26;;;;;;;6.60;1.93;;;;;;;9.31;82.74;95048.09;6166309;23;20177;-81
2023/11/16 11:18:54;;;;;;;4.67;1.90;;;;;;;9.25;82.99;95046.09;6142230;23;20622;-80
2023/11/16 11:21:22;;;;;;;7.47;2.80;;;;;;;9.63;81.83;95037.13;6168928;23;20196;-80
2023/11/16 11:24:04;;;;;;;7.13;2.50;;;;;;;9.79;82.10;95049.31;6167590;23;20706;-80
2023/11/16 11:26:48;;;;;;;7.93;2.70;;;;;;;9.69;81.27;95038.25;6167039;23;20193;-80
2023/11/16 11:29:13;;;;;;;5.50;1.80;;;;;;;9.83;80.55;95037.69;6142725;23;20178;-79
2023/11/16 11:32:10;;;;;;;7.17;2.20;;;;;;;9.81;80.69;95025.84;6142034;23;20174;-81
2023/11/16 11:34:36;;;;;;;7.60;1.80;;;;;;;9.80;80.09;95004.25;6165683;23;20214;-79
2023/11/16 11:37:03;;;;;;;4.87;2.17;;;;;;;9.93;80.04;95012.44;6162953;23;20155;-80
2023/11/16 11:39:38;;;;;;;4.23;1.67;;;;;;;9.80;79.64;95000.88;6162779;23;20158;-80